Time;durP1;ratioP1;P1;durP2;ratioP2;P2;SDS_P1;SDS_P2;PMS_P1;PMS_P2;Temp;Humidity;BMP_temperature;BMP_pressure;BME280_temperature;BME280_humidity;BME280_pressure;Samples;Min_cycle;Max_cycle;Signal;HPM_P1;HPM_P2
2023/07/31 00:00:27;;;;;;;2.67;2.47;;;22.70;72.10;23.40;100401.00;;;;6273750;22;20240;-54
2023/07/31 00:02:54;;;;;;;2.63;2.40;;;22.60;72.10;23.40;100392.00;;;;6270525;22;20169;-54
2023/07/31 00:05:19;;;;;;;2.80;2.50;;;22.60;72.10;23.40;100394.00;;;;6271883;22;20145;-53
2023/07/31 00:07:45;;;;;;;3.73;2.73;;;22.60;71.90;23.40;100383.00;;;;6272032;22;20148;-53
2023/07/31 00:10:11;;;;;;;2.80;2.60;;;22.60;72.10;23.40;100382.00;;;;6271986;22;20167;-53
2023/07/31 00:12:42;;;;;;;2.90;2.60;;;22.60;72.10;23.40;100386.00;;;;6272217;22;20160;-54
2023/07/31 00:15:08;;;;;;;2.60;2.40;;;22.60;72.10;23.40;100388.00;;;;6271889;22;20134;-53
2023/07/31 00:17:34;;;;;;;3.17;2.70;;;22.60;72.10;23.40;100378.00;;;;6270021;22;20185;-53
2023/07/31 00:19:59;;;;;;;2.87;2.40;;;22.60;72.80;23.40;100391.00;;;;6271833;22;20171;-53
2023/07/31 00:22:25;;;;;;;2.87;2.47;;;22.50;72.00;23.40;100392.00;;;;6272058;22;20655;-53
2023/07/31 00:24:51;;;;;;;2.80;2.60;;;22.60;72.10;23.40;100392.00;;;;6271918;22;20141;-54
2023/07/31 00:27:18;;;;;;;2.87;2.60;;;22.50;72.00;23.30;100405.00;;;;6271667;22;20243;-53
2023/07/31 00:29:43;;;;;;;2.97;2.67;;;22.50;72.00;23.30;100399.00;;;;6271900;22;20192;-53
2023/07/31 00:32:09;;;;;;;2.93;2.53;;;22.60;72.20;23.30;100392.00;;;;6272006;22;20176;-54
2023/07/31 00:34:35;;;;;;;3.10;2.67;;;22.50;72.00;23.30;100388.00;;;;6270227;22;20180;-54
2023/07/31 00:37:01;;;;;;;3.03;2.60;;;22.50;72.00;23.30;100387.00;;;;6271795;22;20602;-54
2023/07/31 00:39:26;;;;;;;5.20;3.50;;;22.50;72.00;23.30;100396.00;;;;6271683;22;20196;-54
2023/07/31 00:41:52;;;;;;;4.93;3.63;;;22.20;72.70;23.20;100386.00;;;;6272136;22;20199;-55
2023/07/31 00:44:18;;;;;;;6.57;3.83;;;21.40;75.10;23.00;100387.00;;;;6271872;22;20141;-54
2023/07/31 00:46:44;;;;;;;5.50;3.90;;;21.10;76.60;22.90;100393.00;;;;6271495;22;20145;-55
2023/07/31 00:49:10;;;;;;;5.00;4.03;;;20.90;77.70;22.60;100391.00;;;;6271327;22;20176;-54
2023/07/31 00:51:35;;;;;;;5.80;3.70;;;20.20;79.70;22.30;100381.00;;;;6245026;22;20153;-54
2023/07/31 00:54:01;;;;;;;5.27;4.20;;;19.90;80.90;22.10;100368.00;;;;6270574;22;20153;-52
2023/07/31 00:56:28;;;;;;;6.03;3.90;;;20.00;81.50;22.00;100387.00;;;;6222392;22;20228;-53
2023/07/31 00:58:53;;;;;;;6.20;4.23;;;20.00;81.80;21.90;100381.00;;;;6246758;22;20251;-53
2023/07/31 01:01:19;;;;;;;5.47;3.90;;;19.90;81.80;21.80;100376.00;;;;6271821;22;20198;-55
2023/07/31 01:03:45;;;;;;;8.57;4.10;;;19.90;81.90;21.70;100377.00;;;;6269954;22;20612;-52
2023/07/31 01:06:46;;;;;;;6.23;4.10;;;19.70;82.00;21.70;100369.00;;;;6269869;22;20155;-53
2023/07/31 01:09:17;;;;;;;6.37;3.83;;;19.70;82.50;21.60;100372.00;;;;6270562;22;20175;-53
2023/07/31 01:11:48;;;;;;;5.43;3.77;;;19.70;82.20;21.50;100366.00;;;;6274480;22;20160;-53
2023/07/31 01:14:14;;;;;;;6.00;3.97;;;19.70;82.50;21.40;100360.00;;;;6245229;22;20144;-52
2023/07/31 01:16:39;;;;;;;6.03;3.93;;;19.60;82.50;21.30;100356.00;;;;6271283;22;20165;-53
2023/07/31 01:19:06;;;;;;;7.03;3.90;;;19.50;82.50;21.20;100369.00;;;;6271742;22;20175;-52
2023/07/31 01:22:19;;;;;;;6.90;3.80;;;19.40;82.50;21.20;100377.00;;;;6269925;22;20631;-52
2023/07/31 01:25:18;;;;;;;6.43;4.30;;;19.40;82.90;21.10;100368.00;;;;6176606;23;20153;-53
2023/07/31 01:28:01;;;;;;;6.23;3.63;;;19.50;82.50;21.00;100366.00;;;;6271623;22;20144;-52
2023/07/31 01:30:33;;;;;;;6.13;4.40;;;19.30;83.00;21.00;100363.00;;;;6220184;22;20240;-52
2023/07/31 01:32:59;;;;;;;6.20;3.97;;;19.20;83.10;20.90;100351.00;;;;6246075;22;20278;-53
2023/07/31 01:35:25;;;;;;;7.63;4.27;;;19.30;82.90;20.90;100359.00;;;;6269617;22;20157;-53
2023/07/31 01:37:53;;;;;;;4.50;3.43;;;19.30;82.90;20.90;100371.00;;;;6244177;22;20228;-53
2023/07/31 01:40:19;;;;;;;7.47;4.13;;;19.20;82.90;20.80;100355.00;;;;6271160;22;20169;-52
2023/07/31 01:42:45;;;;;;;6.97;3.70;;;19.20;82.50;20.80;100372.00;;;;6271245;22;20173;-52
2023/07/31 01:45:11;;;;;;;5.53;3.70;;;19.30;82.60;20.80;100366.00;;;;6269627;22;20148;-52
2023/07/31 01:47:37;;;;;;;6.80;4.30;;;19.20;82.50;20.80;100358.00;;;;6271422;22;20149;-53
2023/07/31 01:50:03;;;;;;;6.20;4.20;;;19.20;82.50;20.80;100357.00;;;;6271405;22;20557;-53
2023/07/31 01:52:30;;;;;;;5.97;3.80;;;19.20;82.30;20.80;100357.00;;;;6271221;22;20152;-53
2023/07/31 01:54:55;;;;;;;6.20;3.97;;;19.30;82.50;20.80;100365.00;;;;6271383;22;20199;-52
2023/07/31 01:57:21;;;;;;;6.83;4.37;;;19.20;82.20;20.70;100364.00;;;;6271175;22;20150;-53
2023/07/31 01:59:47;;;;;;;7.63;4.00;;;19.20;82.50;20.70;100355.00;;;;6270893;22;20175;-54
2023/07/31 02:02:13;;;;;;;5.93;3.70;;;19.20;82.50;20.70;100360.00;;;;6271330;22;20182;-54
2023/07/31 02:04:40;;;;;;;5.63;3.60;;;19.20;82.50;20.70;100351.00;;;;6269630;22;20155;-52
2023/07/31 02:07:06;;;;;;;6.37;3.83;;;19.10;82.50;20.70;100350.00;;;;6271236;22;20308;-52
2023/07/31 02:09:32;;;;;;;5.77;3.80;;;19.00;82.90;20.60;100349.00;;;;6270898;22;20170;-52
2023/07/31 02:11:57;;;;;;;5.90;4.10;;;19.00;83.30;20.60;100350.00;;;;6270634;22;20145;-53
2023/07/31 02:14:24;;;;;;;8.20;4.20;;;19.10;83.40;20.60;100338.00;;;;6270904;22;20225;-52
2023/07/31 02:16:49;;;;;;;6.57;4.10;;;19.20;83.20;20.60;100335.00;;;;6270815;22;20168;-53
2023/07/31 02:19:15;;;;;;;6.50;3.80;;;19.10;83.30;20.60;100335.00;;;;6270801;22;20676;-54
2023/07/31 02:21:41;;;;;;;7.30;3.87;;;19.10;83.30;20.60;100335.00;;;;6270559;22;20176;-54
2023/07/31 02:24:06;;;;;;;6.60;4.13;;;19.10;83.20;20.50;100324.00;;;;6270738;22;20141;-54
2023/07/31 02:26:32;;;;;;;7.47;4.10;;;19.00;83.40;20.50;100332.00;;;;6270429;22;20156;-54
2023/07/31 02:28:58;;;;;;;6.03;3.83;;;19.00;83.80;20.50;100321.00;;;;6270757;22;20166;-53
2023/07/31 02:31:23;;;;;;;6.40;4.43;;;19.00;83.60;20.50;100325.00;;;;6270823;22;20149;-53
2023/07/31 02:33:49;;;;;;;5.77;4.17;;;19.10;84.00;20.50;100320.00;;;;6270914;22;20149;-53
2023/07/31 02:36:15;;;;;;;6.53;4.13;;;19.10;83.50;20.60;100325.00;;;;6270662;22;20155;-53
2023/07/31 02:38:41;;;;;;;6.67;4.00;;;19.20;83.50;20.60;100310.00;;;;6269110;22;20229;-53
2023/07/31 02:41:06;;;;;;;6.17;3.90;;;19.30;83.10;20.60;100311.00;;;;6270981;22;20576;-53
2023/07/31 02:43:32;;;;;;;7.20;4.03;;;19.20;83.60;20.60;100333.00;;;;6270905;22;20170;-53
2023/07/31 02:45:59;;;;;;;6.57;4.10;;;19.10;84.00;20.60;100334.00;;;;6270685;22;20141;-53
2023/07/31 02:48:25;;;;;;;6.03;3.80;;;19.10;84.10;20.60;100318.00;;;;6270841;22;20805;-52
2023/07/31 02:50:50;;;;;;;6.97;3.80;;;19.20;83.40;20.60;100309.00;;;;6270871;22;20256;-53
2023/07/31 02:53:16;;;;;;;5.97;4.23;;;19.40;83.10;20.60;100306.00;;;;6271064;22;20175;-54
2023/07/31 02:55:42;;;;;;;6.07;3.30;;;19.30;83.80;20.60;100303.00;;;;6272100;22;20639;-53
2023/07/31 02:58:07;;;;;;;4.83;3.67;;;19.30;84.40;20.70;100317.00;;;;6272107;22;20158;-53
2023/07/31 03:00:33;;;;;;;5.33;3.90;;;19.30;83.50;20.70;100298.00;;;;6270793;22;20171;-53
2023/07/31 03:02:59;;;;;;;6.67;4.00;;;19.30;83.70;20.70;100304.00;;;;6272127;22;20228;-53
2023/07/31 03:05:25;;;;;;;6.43;3.60;;;19.30;83.50;20.70;100311.00;;;;6272034;22;20659;-54
2023/07/31 03:07:50;;;;;;;5.90;3.83;;;19.30;83.90;20.60;100301.00;;;;6272107;22;20188;-53
2023/07/31 03:10:16;;;;;;;6.40;3.97;;;19.20;84.20;20.60;100302.00;;;;6274288;22;20199;-53
2023/07/31 03:12:42;;;;;;;5.43;3.90;;;19.10;84.70;20.60;100302.00;;;;6273346;22;20200;-53
2023/07/31 03:15:08;;;;;;;5.50;3.90;;;19.20;84.70;20.60;100296.00;;;;6272011;22;20490;-54
2023/07/31 03:17:34;;;;;;;7.43;3.97;;;19.10;85.00;20.60;100296.00;;;;6271705;22;20607;-54
2023/07/31 03:19:59;;;;;;;6.33;4.30;;;19.10;84.70;20.60;100292.00;;;;6270415;22;20224;-54
2023/07/31 03:22:25;;;;;;;7.53;4.23;;;19.20;84.40;20.60;100291.00;;;;6271808;22;20226;-53
2023/07/31 03:24:51;;;;;;;5.03;4.00;;;19.10;84.80;20.60;100287.00;;;;6271980;22;20146;-54
2023/07/31 03:27:17;;;;;;;5.03;3.90;;;19.20;84.50;20.60;100287.00;;;;6272088;22;20146;-54
2023/07/31 03:29:42;;;;;;;6.40;3.97;;;19.20;84.50;20.60;100281.00;;;;6271770;22;20174;-54
2023/07/31 03:32:08;;;;;;;5.97;4.13;;;19.30;84.50;20.60;100284.00;;;;6271236;22;20595;-54
2023/07/31 03:34:34;;;;;;;6.33;4.43;;;19.20;84.50;20.60;100283.00;;;;6271627;22;20197;-54
2023/07/31 03:36:59;;;;;;;5.63;4.20;;;19.10;84.70;20.60;100282.00;;;;6271483;22;20492;-54
2023/07/31 03:39:25;;;;;;;6.73;4.73;;;19.10;84.90;20.60;100289.00;;;;6270009;22;20185;-54
2023/07/31 03:41:51;;;;;;;5.30;4.13;;;19.10;84.90;20.50;100276.00;;;;6271892;22;20224;-54
2023/07/31 03:44:17;;;;;;;8.67;4.20;;;19.00;85.70;20.50;100279.00;;;;6272388;22;20196;-54
2023/07/31 03:46:42;;;;;;;9.97;4.60;;;18.90;86.00;20.50;100283.00;;;;6271914;22;20141;-54
2023/07/31 03:49:08;;;;;;;6.27;3.97;;;18.90;86.50;20.40;100287.00;;;;6270674;22;20165;-54
2023/07/31 03:51:34;;;;;;;5.87;3.97;;;18.90;86.90;20.40;100275.00;;;;6272201;22;20149;-54
2023/07/31 03:53:59;;;;;;;6.23;4.07;;;18.90;86.90;20.40;100276.00;;;;6272163;22;20195;-54
2023/07/31 03:56:25;;;;;;;6.20;4.37;;;19.00;86.70;20.40;100280.00;;;;6271907;22;20207;-54
2023/07/31 03:58:51;;;;;;;5.77;3.87;;;18.90;87.00;20.40;100272.00;;;;6270472;22;20609;-55
2023/07/31 04:01:17;;;;;;;7.87;4.20;;;18.90;87.50;20.40;100272.00;;;;6270068;22;20149;-54
2023/07/31 04:03:43;;;;;;;7.63;4.20;;;19.00;87.40;20.40;100273.00;;;;6271213;22;20177;-54
2023/07/31 04:06:10;;;;;;;7.20;4.10;;;19.00;87.30;20.40;100275.00;;;;6270604;22;20614;-54
2023/07/31 04:08:36;;;;;;;6.77;4.37;;;19.10;86.80;20.40;100263.00;;;;6271887;22;20152;-54
2023/07/31 04:11:01;;;;;;;7.07;4.40;;;19.00;86.90;20.40;100257.00;;;;6270122;22;20160;-54
2023/07/31 04:13:29;;;;;;;6.43;4.47;;;19.10;86.80;20.40;100256.00;;;;6271627;22;20158;-54
2023/07/31 04:15:55;;;;;;;8.30;4.37;;;19.00;87.00;20.40;100267.00;;;;6269186;22;20152;-53
2023/07/31 04:18:20;;;;;;;7.80;4.17;;;19.10;87.10;20.40;100259.00;;;;6241055;23;20152;-54
2023/07/31 04:20:46;;;;;;;6.93;4.27;;;19.10;86.70;20.40;100265.00;;;;6214257;23;20695;-53
2023/07/31 04:23:12;;;;;;;6.03;4.20;;;19.10;86.80;20.50;100261.00;;;;6241146;23;20261;-54
2023/07/31 04:25:38;;;;;;;5.80;4.03;;;19.20;86.30;20.50;100186.00;;;;6242665;23;20286;-54
2023/07/31 04:28:04;;;;;;;4.97;3.70;;;19.30;86.00;20.50;100257.00;;;;6242504;23;20151;-54
2023/07/31 04:30:29;;;;;;;6.80;4.20;;;19.20;85.80;20.50;100250.00;;;;6242295;23;20171;-55
2023/07/31 04:32:55;;;;;;;7.03;4.13;;;19.30;85.60;20.50;100250.00;;;;6242381;23;20180;-53
2023/07/31 04:35:21;;;;;;;7.80;4.27;;;19.20;86.10;20.50;100254.00;;;;6242384;23;20154;-54
2023/07/31 04:37:48;;;;;;;6.00;4.23;;;19.20;86.30;20.60;100250.00;;;;6241823;23;20151;-54
2023/07/31 04:40:15;;;;;;;6.03;4.20;;;19.30;86.30;20.50;100242.00;;;;6242522;23;20715;-54
2023/07/31 04:42:41;;;;;;;9.27;4.00;;;19.20;86.30;20.50;100244.00;;;;6242484;23;20211;-54
2023/07/31 04:45:08;;;;;;;6.17;4.07;;;19.30;86.70;20.60;100241.00;;;;6242242;23;20143;-55
2023/07/31 04:47:34;;;;;;;4.80;3.63;;;19.40;85.00;20.60;100243.00;;;;6215387;23;20155;-54
2023/07/31 04:50:00;;;;;;;6.80;3.90;;;19.70;83.20;20.60;100233.00;;;;6243008;23;20644;-53
2023/07/31 04:52:26;;;;;;;6.10;4.07;;;19.80;83.20;20.70;100239.00;;;;6243386;23;20498;-54
2023/07/31 04:54:51;;;;;;;4.57;4.00;;;19.90;82.90;20.70;100240.00;;;;6243805;23;20157;-54
2023/07/31 04:57:17;;;;;;;7.27;4.27;;;19.90;82.80;20.80;100243.00;;;;6216296;23;20168;-54
2023/07/31 04:59:43;;;;;;;4.53;4.10;;;20.00;82.50;20.80;100237.00;;;;6242088;23;20179;-53
2023/07/31 05:02:09;;;;;;;6.47;4.03;;;20.00;82.50;20.90;100241.00;;;;6242385;23;20199;-54
2023/07/31 05:04:34;;;;;;;5.37;4.10;;;20.00;82.20;20.60;100234.00;;;;6242321;23;20155;-54
2023/07/31 05:07:00;;;;;;;5.27;4.20;;;19.90;83.30;20.90;100219.00;;;;6241722;23;20254;-54
2023/07/31 05:09:26;;;;;;;6.93;4.20;;;19.80;83.50;20.90;100226.00;;;;6237138;23;20176;-55
2023/07/31 05:11:51;;;;;;;8.30;4.57;;;19.80;83.70;20.90;100213.00;;;;6244051;23;20603;-54
2023/07/31 05:14:17;;;;;;;5.80;4.33;;;19.80;83.60;20.90;100213.00;;;;6241909;23;20147;-54
2023/07/31 05:16:43;;;;;;;7.83;4.10;;;19.90;83.70;20.90;100204.00;;;;6250381;22;20163;-55
2023/07/31 05:19:08;;;;;;;6.47;4.10;;;19.90;83.00;20.90;100205.00;;;;6272506;22;20177;-55
2023/07/31 05:21:34;;;;;;;5.40;4.40;;;20.00;82.60;20.90;100204.00;;;;6272040;22;20510;-54
2023/07/31 05:24:00;;;;;;;7.07;4.63;;;19.90;83.30;20.90;100203.00;;;;6271103;22;20477;-54
2023/07/31 05:26:26;;;;;;;7.23;4.37;;;19.80;83.30;20.90;100199.00;;;;6271659;22;20145;-54
2023/07/31 05:28:51;;;;;;;6.60;4.17;;;19.80;83.70;20.90;100195.00;;;;6272356;22;20147;-54
2023/07/31 05:31:17;;;;;;;5.10;4.13;;;19.90;83.30;20.90;100188.00;;;;6272424;22;20152;-55
2023/07/31 05:33:43;;;;;;;5.20;3.80;;;19.90;83.30;20.90;100191.00;;;;6270572;22;20166;-53
2023/07/31 05:36:09;;;;;;;6.77;4.77;;;19.90;82.70;20.90;100183.00;;;;6270711;22;20151;-53
2023/07/31 05:38:34;;;;;;;6.40;4.60;;;19.90;83.80;20.90;100177.00;;;;6271965;22;20200;-53
2023/07/31 05:41:00;;;;;;;5.27;4.33;;;19.90;83.30;20.90;100185.00;;;;6272247;22;20168;-54
2023/07/31 05:43:26;;;;;;;4.97;4.00;;;19.90;83.70;20.90;100179.00;;;;6271658;22;20175;-54
2023/07/31 05:45:52;;;;;;;5.07;4.47;;;19.90;82.50;20.90;100174.00;;;;6269698;22;20189;-54
2023/07/31 05:48:17;;;;;;;5.10;4.27;;;19.90;82.50;20.90;100170.00;;;;6272056;22;20141;-54
2023/07/31 05:50:44;;;;;;;5.40;4.27;;;19.90;82.60;20.90;100156.00;;;;6272259;22;20161;-54
2023/07/31 05:53:10;;;;;;;6.43;4.30;;;19.90;82.40;20.90;100163.00;;;;6244768;22;20158;-54
2023/07/31 05:55:36;;;;;;;5.67;4.10;;;19.90;82.80;20.90;100154.00;;;;6271697;22;20161;-54
2023/07/31 05:58:01;;;;;;;5.13;3.83;;;19.80;83.20;20.90;100143.00;;;;6271502;22;20177;-54
2023/07/31 06:00:27;;;;;;;5.33;4.40;;;19.70;83.40;20.90;100159.00;;;;6272533;22;20178;-54
2023/07/31 06:02:53;;;;;;;8.50;4.70;;;19.70;84.00;20.90;100164.00;;;;6271682;22;20179;-53
2023/07/31 06:05:19;;;;;;;4.57;4.03;;;19.70;83.60;20.90;100154.00;;;;6271528;22;20654;-54
2023/07/31 06:07:44;;;;;;;5.53;3.80;;;19.80;82.60;20.90;100162.00;;;;6270143;22;20153;-54
2023/07/31 06:10:10;;;;;;;5.13;4.20;;;19.80;82.70;20.80;100166.00;;;;6271731;22;20501;-54
2023/07/31 06:12:36;;;;;;;5.77;4.53;;;19.60;83.60;20.80;100183.00;;;;6271465;22;20153;-54
2023/07/31 06:15:05;;;;;;;4.77;3.70;;;19.50;84.20;20.80;100182.00;;;;6271744;22;20200;-53
2023/07/31 06:17:31;;;;;;;5.83;4.47;;;19.60;83.50;20.80;100165.00;;;;6270921;22;20212;-53
2023/07/31 06:19:57;;;;;;;8.23;4.67;;;19.70;83.80;20.70;100170.00;;;;6271825;22;20169;-53
2023/07/31 06:22:22;;;;;;;6.37;4.70;;;19.50;85.60;20.70;100176.00;;;;6270773;22;20882;-53
2023/07/31 06:24:48;;;;;;;4.63;4.23;;;19.50;85.60;20.70;100177.00;;;;6270374;22;20141;-53
2023/07/31 06:27:14;;;;;;;5.80;4.30;;;19.30;87.00;20.70;100167.00;;;;6270723;22;20145;-53
2023/07/31 06:29:40;;;;;;;4.77;4.27;;;19.30;86.20;20.70;100185.00;;;;6271506;22;20164;-53
2023/07/31 06:32:06;;;;;;;6.20;4.43;;;19.50;87.00;20.70;100165.00;;;;6271457;22;20155;-54
2023/07/31 06:34:31;;;;;;;4.57;3.77;;;19.30;86.50;20.70;100163.00;;;;6270384;22;20157;-53
2023/07/31 06:36:57;;;;;;;4.90;4.27;;;19.50;85.90;20.70;100152.00;;;;6270109;22;20165;-54
2023/07/31 06:39:23;;;;;;;5.13;3.90;;;19.70;85.00;20.70;100162.00;;;;6269981;22;20805;-53
2023/07/31 06:41:49;;;;;;;6.30;4.60;;;19.70;84.40;20.70;100159.00;;;;6270154;22;20178;-53
2023/07/31 06:44:14;;;;;;;5.13;4.13;;;19.70;85.70;20.70;100159.00;;;;6270470;22;20141;-54
2023/07/31 06:46:40;;;;;;;5.57;4.07;;;19.80;85.00;20.80;100159.00;;;;6268650;22;20825;-54
2023/07/31 06:49:06;;;;;;;4.50;4.10;;;19.90;84.40;20.80;100151.00;;;;6272021;22;20164;-54
2023/07/31 06:51:31;;;;;;;7.73;4.47;;;19.90;84.50;20.80;100157.00;;;;6272308;22;20152;-54
2023/07/31 06:54:00;;;;;;;7.53;4.70;;;19.80;85.30;20.80;100158.00;;;;6272635;22;20200;-54
2023/07/31 06:56:26;;;;;;;6.07;4.63;;;19.70;86.30;20.80;100167.00;;;;6264311;22;20151;-53
2023/07/31 06:58:51;;;;;;;4.97;4.13;;;19.50;87.20;20.70;100159.00;;;;6271018;22;20152;-54
2023/07/31 07:01:17;;;;;;;6.00;4.30;;;19.40;87.00;20.70;100158.00;;;;6271192;22;20148;-54
2023/07/31 07:03:43;;;;;;;5.73;4.37;;;19.50;86.60;20.70;100171.00;;;;6270640;22;20153;-54
2023/07/31 07:06:09;;;;;;;4.47;3.87;;;19.60;86.40;20.70;100156.00;;;;6270367;22;20148;-54
2023/07/31 07:08:34;;;;;;;5.00;4.00;;;19.70;84.70;20.70;100160.00;;;;6271316;22;20143;-55
2023/07/31 07:11:00;;;;;;;7.63;4.40;;;19.90;83.90;20.80;100169.00;;;;6271652;22;20166;-54
2023/07/31 07:13:26;;;;;;;8.40;4.70;;;19.90;85.00;20.80;100153.00;;;;6270724;22;20175;-53
2023/07/31 07:15:51;;;;;;;4.67;4.00;;;19.80;85.30;20.80;100149.00;;;;6266384;22;20185;-54
2023/07/31 07:18:17;;;;;;;4.10;3.70;;;19.90;83.50;20.90;100165.00;;;;6270932;22;20163;-54
2023/07/31 07:20:49;;;;;;;4.27;3.70;;;20.00;82.80;20.90;100146.00;;;;6271958;22;20193;-54
2023/07/31 07:23:14;;;;;;;6.33;4.30;;;20.10;82.60;20.90;100147.00;;;;6271571;22;20270;-54
2023/07/31 07:25:41;;;;;;;4.47;4.00;;;20.10;82.50;20.90;100150.00;;;;6271619;22;20192;-53
2023/07/31 07:28:07;;;;;;;4.70;3.67;;;20.20;82.50;21.00;100148.00;;;;6271454;22;20238;-55
2023/07/31 07:30:32;;;;;;;4.17;3.60;;;20.20;82.00;21.00;100149.00;;;;6271334;22;20195;-54
2023/07/31 07:32:58;;;;;;;5.17;3.80;;;20.20;81.50;21.00;100157.00;;;;6271867;22;20155;-53
2023/07/31 07:35:24;;;;;;;3.97;3.53;;;20.20;81.60;21.00;100147.00;;;;6271296;22;20152;-55
2023/07/31 07:37:50;;;;;;;5.07;3.80;;;20.20;81.70;21.00;100157.00;;;;6271559;22;20486;-54
2023/07/31 07:40:16;;;;;;;5.57;4.00;;;20.20;81.80;21.00;100150.00;;;;6272197;22;20168;-54
2023/07/31 07:42:41;;;;;;;6.80;4.20;;;20.10;83.50;21.00;100146.00;;;;6270506;22;20653;-54
2023/07/31 07:45:08;;;;;;;4.93;3.70;;;20.20;82.90;21.00;100151.00;;;;6271699;22;20155;-53
2023/07/31 07:47:34;;;;;;;4.60;3.87;;;20.10;83.50;21.00;100159.00;;;;6269812;22;20233;-53
2023/07/31 07:49:59;;;;;;;7.17;4.23;;;19.90;85.50;21.00;100161.00;;;;6271717;22;20172;-53
2023/07/31 07:52:25;;;;;;;5.80;4.40;;;19.60;86.90;20.90;100148.00;;;;6271421;22;20152;-53
2023/07/31 07:54:51;;;;;;;4.97;3.90;;;19.70;86.50;20.90;100146.00;;;;6271530;22;20147;-53
2023/07/31 07:57:17;;;;;;;4.90;3.77;;;19.70;87.00;20.90;100145.00;;;;6271384;22;20156;-53
2023/07/31 07:59:42;;;;;;;5.43;4.40;;;19.50;87.90;20.80;100150.00;;;;6271892;22;20587;-53
2023/07/31 08:02:08;;;;;;;5.23;4.10;;;19.30;89.50;20.80;100147.00;;;;6273471;22;20222;-52
2023/07/31 08:04:34;;;;;;;5.80;3.60;;;19.30;89.30;20.70;100152.00;;;;6271671;22;20194;-53
2023/07/31 08:07:00;;;;;;;4.63;3.90;;;19.50;87.40;20.70;100148.00;;;;6272759;22;20142;-53
2023/07/31 08:09:26;;;;;;;5.03;4.10;;;19.40;89.10;20.70;100155.00;;;;6273369;22;20169;-54
2023/07/31 08:11:51;;;;;;;5.23;4.27;;;19.60;88.70;20.70;100161.00;;;;6273607;22;20155;-54
2023/07/31 08:14:17;;;;;;;4.60;4.10;;;19.30;90.00;20.60;100151.00;;;;6273362;22;20147;-53
2023/07/31 08:16:43;;;;;;;6.47;3.70;;;19.00;90.50;20.50;100158.00;;;;6272497;22;20161;-54
2023/07/31 08:19:08;;;;;;;5.47;3.83;;;19.20;90.10;20.50;100145.00;;;;6273517;22;20168;-54
2023/07/31 08:21:34;;;;;;;4.70;3.70;;;19.40;88.60;20.50;100134.00;;;;6273218;22;20175;-53
2023/07/31 08:24:00;;;;;;;5.87;3.60;;;19.60;87.80;20.60;100131.00;;;;6272944;22;20485;-56
2023/07/31 08:26:26;;;;;;;4.73;3.20;;;19.80;87.00;20.70;100135.00;;;;6272428;22;20145;-53
2023/07/31 08:28:51;;;;;;;4.27;3.60;;;19.90;86.20;20.80;100135.00;;;;6271782;22;20142;-55
2023/07/31 08:31:18;;;;;;;4.83;3.60;;;20.00;86.50;20.90;100130.00;;;;6272711;22;20143;-55
2023/07/31 08:33:43;;;;;;;5.07;3.67;;;20.00;85.60;20.90;100134.00;;;;6273133;22;20142;-55
2023/07/31 08:36:09;;;;;;;4.13;3.40;;;20.10;85.10;21.00;100118.00;;;;6272087;22;20154;-56
2023/07/31 08:38:35;;;;;;;4.33;3.60;;;20.10;84.70;21.00;100117.00;;;;6273290;22;20148;-56
2023/07/31 08:41:03;;;;;;;4.03;3.40;;;20.20;84.60;21.00;100107.00;;;;6273128;22;20168;-56
2023/07/31 08:43:28;;;;;;;5.97;3.47;;;20.20;84.30;21.10;100114.00;;;;6221758;22;20630;-55
2023/07/31 08:45:54;;;;;;;4.03;3.40;;;20.20;84.10;21.10;100100.00;;;;6270712;22;20152;-55
2023/07/31 08:48:22;;;;;;;3.77;3.47;;;20.20;83.90;21.10;100101.00;;;;6273408;22;20176;-56
2023/07/31 08:50:48;;;;;;;3.97;3.50;;;20.30;83.70;21.10;100092.00;;;;6246780;22;20234;-56
2023/07/31 08:53:13;;;;;;;3.90;3.53;;;20.30;83.70;21.20;100096.00;;;;6272793;22;20150;-56
2023/07/31 08:55:39;;;;;;;4.30;3.40;;;20.30;83.60;21.20;100088.00;;;;6275614;22;20158;-56
2023/07/31 08:58:05;;;;;;;3.80;3.40;;;20.30;83.40;21.20;100090.00;;;;6270875;22;20149;-54
2023/07/31 09:00:34;;;;;;;3.80;3.40;;;20.30;83.20;21.20;100098.00;;;;6270804;22;20255;-55
2023/07/31 09:03:07;;;;;;;3.57;3.27;;;20.30;83.30;21.20;100093.00;;;;6271332;22;20172;-55
2023/07/31 09:05:33;;;;;;;3.40;3.10;;;20.40;83.30;21.20;100100.00;;;;6246482;22;20142;-54
2023/07/31 09:08:00;;;;;;;3.63;3.33;;;20.40;83.20;21.20;100107.00;;;;6274134;22;20172;-55
2023/07/31 09:10:26;;;;;;;3.50;3.20;;;20.40;82.90;21.20;100094.00;;;;6273808;22;20177;-54
2023/07/31 09:12:51;;;;;;;4.17;3.77;;;20.40;82.90;21.20;100102.00;;;;6272871;22;20152;-54
2023/07/31 09:15:17;;;;;;;4.43;3.20;;;20.40;82.90;21.20;100115.00;;;;6271755;22;20152;-53
2023/07/31 09:17:43;;;;;;;3.70;3.40;;;20.40;82.90;21.20;100104.00;;;;6270763;22;20191;-53
2023/07/31 09:20:21;;;;;;;6.30;3.60;;;20.40;82.80;21.20;100109.00;;;;6272573;22;20192;-52
2023/07/31 09:22:48;;;;;;;3.60;3.30;;;20.50;82.70;21.20;100103.00;;;;6273007;22;20182;-53
2023/07/31 09:25:26;;;;;;;3.70;3.30;;;20.40;82.40;21.20;100108.00;;;;6270093;22;20187;-52
2023/07/31 09:27:59;;;;;;;4.67;3.40;;;20.50;82.50;21.30;100110.00;;;;6271333;22;20138;-52
2023/07/31 09:30:25;;;;;;;3.40;3.10;;;20.50;82.30;21.30;100112.00;;;;6272440;22;20168;-52
2023/07/31 09:32:59;;;;;;;3.30;3.00;;;20.50;82.40;21.30;100097.00;;;;6272533;22;20231;-53
2023/07/31 09:35:35;;;;;;;3.53;3.23;;;20.50;82.30;21.30;100110.00;;;;6272634;22;20225;-53
2023/07/31 09:38:06;;;;;;;3.77;3.20;;;20.50;82.10;21.30;100110.00;;;;6272097;22;20156;-52
2023/07/31 09:40:34;;;;;;;3.60;3.30;;;20.50;82.00;21.30;100086.00;;;;6272768;22;20501;-53
2023/07/31 09:43:08;;;;;;;4.33;3.30;;;20.50;81.90;21.30;100093.00;;;;6269889;22;20172;-54
2023/07/31 09:45:38;;;;;;;5.53;3.23;;;20.50;81.90;21.30;100084.00;;;;6271930;22;20562;-53
2023/07/31 09:48:08;;;;;;;6.10;3.30;;;20.60;82.00;21.30;100083.00;;;;6271084;22;20175;-54
2023/07/31 09:50:36;;;;;;;5.63;3.40;;;20.50;81.70;21.30;100082.00;;;;6247132;22;20216;-54
2023/07/31 09:53:02;;;;;;;4.20;3.40;;;20.50;81.70;21.30;100084.00;;;;6271544;22;20602;-54
2023/07/31 09:55:28;;;;;;;3.63;3.33;;;20.60;81.70;21.30;100079.00;;;;6271981;22;20156;-53
2023/07/31 09:57:53;;;;;;;3.50;3.20;;;20.60;81.90;21.40;100074.00;;;;6244698;22;20156;-53
2023/07/31 10:00:22;;;;;;;3.40;3.10;;;20.60;81.70;21.40;100083.00;;;;6270682;22;20173;-53
2023/07/31 10:02:48;;;;;;;5.37;3.03;;;20.60;81.50;21.40;100076.00;;;;6272231;22;20171;-54
2023/07/31 10:05:15;;;;;;;3.33;3.03;;;20.60;81.30;21.40;100075.00;;;;6270190;22;20458;-53
2023/07/31 10:07:45;;;;;;;5.17;3.20;;;20.60;81.20;21.40;100045.00;;;;6272105;22;20141;-53
2023/07/31 10:10:11;;;;;;;5.67;3.27;;;20.60;81.10;21.40;100066.00;;;;6270851;22;20251;-52
2023/07/31 10:12:37;;;;;;;4.43;3.47;;;20.60;81.10;21.40;100074.00;;;;6270848;22;20156;-52
2023/07/31 10:15:03;;;;;;;4.30;3.20;;;20.60;81.10;21.40;100060.00;;;;6219531;22;20145;-53
2023/07/31 10:17:30;;;;;;;4.90;3.10;;;20.70;81.00;21.40;100060.00;;;;6244455;22;20236;-53
2023/07/31 10:19:56;;;;;;;3.20;2.90;;;20.70;81.30;21.40;100068.00;;;;6272214;22;20172;-53
2023/07/31 10:22:22;;;;;;;7.30;3.37;;;20.70;81.10;21.50;100060.00;;;;6244726;22;20171;-53
2023/07/31 10:24:48;;;;;;;4.40;2.97;;;20.70;80.90;21.40;100074.00;;;;6271101;22;20174;-53
2023/07/31 10:27:14;;;;;;;4.03;3.10;;;20.70;81.00;21.50;100073.00;;;;6271598;22;20179;-52
2023/07/31 10:29:40;;;;;;;3.30;2.97;;;20.70;80.90;21.50;100075.00;;;;6271538;22;20168;-53
2023/07/31 10:32:10;;;;;;;3.83;2.80;;;20.70;80.70;21.50;100084.00;;;;6271074;22;20159;-52
2023/07/31 10:34:36;;;;;;;3.30;3.00;;;20.70;80.70;21.50;100080.00;;;;6270983;22;20173;-52
2023/07/31 10:37:35;;;;;;;4.17;3.00;;;20.70;80.60;21.50;100062.00;;;;6270107;22;20177;-52
2023/07/31 10:40:07;;;;;;;3.00;2.70;;;20.70;80.70;21.50;100066.00;;;;6270677;22;20632;-53
2023/07/31 10:42:38;;;;;;;3.23;2.93;;;20.70;80.70;21.50;100069.00;;;;6271712;22;20594;-52
2023/07/31 10:45:11;;;;;;;3.13;2.83;;;20.70;80.60;21.40;100066.00;;;;6272096;22;20147;-52